Industrial Edge — V2EL9 — position and weather

sailwx.info

Track history (hours):
 
Tides and Currents Weather Stations Pressure Air Temp Water Temp Dewpoint Dewpoint Depression Visibility Wind Speed Wind Dir Waves Ship Positions

Industrial Edge

Last reported at 2018-Feb-03 20:54 UTC. Time now 2018-Feb-22 15:11 UTC.
Position N 06°51' W 014°16'.
Warning: this ship's position is 18 days out of date.

Length 139 m; draft 5.2 m.

Type: Cargo ship. MMSI: 305472000.

Date/timePositionNaut miles runAvg speedWind from/ knotsBaromVisibWave heightAir tempDewpointWater temp
2018-Feb-03 20:54N 06°51' W 014°16'5014.0
2018-Feb-03 17:22N 07°31' W 014°47'914.5
2018-Feb-03 16:46N 07°38' W 014°52'1114.5
2018-Feb-03 16:00N 07°47' W 014°58'1414.8
2018-Feb-03 15:04N 07°58' W 015°07'114.9
2018-Feb-03 15:00N 07°59' W 015°07'714.8
2018-Feb-03 14:30N 08°04' W 015°12'814.6
2018-Feb-03 13:56N 08°11' W 015°17'3614.3
2018-Feb-03 11:23N 08°40' W 015°39'614.3
2018-Feb-03 10:59N 08°45' W 015°42'1614.3
2018-Feb-03 09:52N 08°58' W 015°52'514.1
2018-Feb-03 09:30N 09°02' W 015°55'1114.2
2018-Feb-03 08:45N 09°11' W 016°02'314.5
2018-Feb-03 08:30N 09°13' W 016°04'714.5
2018-Feb-03 08:00N 09°19' W 016°08'2114.3
2018-Feb-03 06:30N 09°37' W 016°19'714.9
2018-Feb-03 06:01N 09°44' W 016°23'714.7
2018-Feb-03 05:30N 09°50' W 016°27'814.9
2018-Feb-03 05:00N 09°57' W 016°31'1515.0
2018-Feb-03 04:00N 10°10' W 016°38'815.1
2018-Feb-03 03:30N 10°16' W 016°42'  
Track history (hours):
 
Tides and Currents Weather Stations Pressure Air Temp Water Temp Dewpoint Dewpoint Depression Visibility Wind Speed Wind Dir Waves Ship Positions

Industrial Edge

Last reported at 2018-Feb-03 20:54 UTC. Time now 2018-Feb-22 15:11 UTC.
Position N 06°51' W 014°16'.
Warning: this ship's position is 18 days out of date.

Length 139 m; draft 5.2 m.

Type: Cargo ship. MMSI: 305472000.

Date/timePositionNaut miles runAvg speedWind from/ knotsBaromVisibWave heightAir tempDewpointWater temp
2018-Feb-03 20:54N 06°51' W 014°16'5014.0
2018-Feb-03 17:22N 07°31' W 014°47'914.5
2018-Feb-03 16:46N 07°38' W 014°52'1114.5
2018-Feb-03 16:00N 07°47' W 014°58'1414.8
2018-Feb-03 15:04N 07°58' W 015°07'114.9
2018-Feb-03 15:00N 07°59' W 015°07'714.8
2018-Feb-03 14:30N 08°04' W 015°12'814.6
2018-Feb-03 13:56N 08°11' W 015°17'3614.3
2018-Feb-03 11:23N 08°40' W 015°39'614.3
2018-Feb-03 10:59N 08°45' W 015°42'1614.3
2018-Feb-03 09:52N 08°58' W 015°52'514.1
2018-Feb-03 09:30N 09°02' W 015°55'1114.2
2018-Feb-03 08:45N 09°11' W 016°02'314.5
2018-Feb-03 08:30N 09°13' W 016°04'714.5
2018-Feb-03 08:00N 09°19' W 016°08'2114.3
2018-Feb-03 06:30N 09°37' W 016°19'714.9
2018-Feb-03 06:01N 09°44' W 016°23'714.7
2018-Feb-03 05:30N 09°50' W 016°27'814.9
2018-Feb-03 05:00N 09°57' W 016°31'1515.0
2018-Feb-03 04:00N 10°10' W 016°38'815.1
2018-Feb-03 03:30N 10°16' W 016°42'  

Dump ship's entire track history